sensor_id;sensor_type;location;lat;lon;timestamp;P1;durP1;ratioP1;P2;durP2;ratioP2
46481;SDS011;32193;51.446;6.792;2022-11-03T00:02:19;14.18;;;2.67;;
46481;SDS011;32193;51.446;6.792;2022-11-03T00:04:45;13.25;;;2.60;;
46481;SDS011;32193;51.446;6.792;2022-11-03T00:07:10;15.98;;;2.83;;
46481;SDS011;32193;51.446;6.792;2022-11-03T00:09:36;10.35;;;2.58;;
46481;SDS011;32193;51.446;6.792;2022-11-03T00:12:02;14.82;;;2.72;;
46481;SDS011;32193;51.446;6.792;2022-11-03T00:14:28;13.68;;;2.90;;
46481;SDS011;32193;51.446;6.792;2022-11-03T00:16:54;11.15;;;2.47;;
46481;SDS011;32193;51.446;6.792;2022-11-03T00:19:19;20.55;;;3.25;;
46481;SDS011;32193;51.446;6.792;2022-11-03T00:21:45;10.88;;;2.47;;
46481;SDS011;32193;51.446;6.792;2022-11-03T00:24:12;14.57;;;2.85;;
46481;SDS011;32193;51.446;6.792;2022-11-03T00:26:37;13.55;;;2.47;;
46481;SDS011;32193;51.446;6.792;2022-11-03T00:29:07;14.27;;;2.70;;
46481;SDS011;32193;51.446;6.792;2022-11-03T00:31:35;11.93;;;2.67;;
46481;SDS011;32193;51.446;6.792;2022-11-03T00:34:02;12.55;;;3.00;;
46481;SDS011;32193;51.446;6.792;2022-11-03T00:36:29;14.15;;;2.80;;
46481;SDS011;32193;51.446;6.792;2022-11-03T00:38:56;13.73;;;2.83;;
46481;SDS011;32193;51.446;6.792;2022-11-03T00:41:22;15.68;;;2.88;;
46481;SDS011;32193;51.446;6.792;2022-11-03T00:43:49;14.20;;;2.38;;
46481;SDS011;32193;51.446;6.792;2022-11-03T00:46:16;9.73;;;2.63;;
46481;SDS011;32193;51.446;6.792;2022-11-03T00:48:42;15.65;;;3.30;;
46481;SDS011;32193;51.446;6.792;2022-11-03T00:51:12;15.63;;;2.97;;
46481;SDS011;32193;51.446;6.792;2022-11-03T00:56:11;14.60;;;3.78;;
46481;SDS011;32193;51.446;6.792;2022-11-03T00:58:42;11.50;;;3.00;;
46481;SDS011;32193;51.446;6.792;2022-11-03T01:01:12;12.95;;;3.63;;
46481;SDS011;32193;51.446;6.792;2022-11-03T01:03:39;15.30;;;3.05;;
46481;SDS011;32193;51.446;6.792;2022-11-03T01:06:27;14.70;;;2.78;;
46481;SDS011;32193;51.446;6.792;2022-11-03T01:09:11;11.10;;;2.63;;
46481;SDS011;32193;51.446;6.792;2022-11-03T01:11:37;13.52;;;3.20;;
46481;SDS011;32193;51.446;6.792;2022-11-03T01:14:09;13.82;;;2.90;;
46481;SDS011;32193;51.446;6.792;2022-11-03T01:16:37;12.75;;;3.00;;
46481;SDS011;32193;51.446;6.792;2022-11-03T01:19:03;12.80;;;2.92;;
46481;SDS011;32193;51.446;6.792;2022-11-03T01:21:29;12.70;;;2.30;;
46481;SDS011;32193;51.446;6.792;2022-11-03T01:23:54;13.07;;;4.15;;
46481;SDS011;32193;51.446;6.792;2022-11-03T01:26:20;14.32;;;3.42;;
46481;SDS011;32193;51.446;6.792;2022-11-03T01:28:46;13.73;;;3.08;;
46481;SDS011;32193;51.446;6.792;2022-11-03T01:31:14;16.15;;;3.58;;
46481;SDS011;32193;51.446;6.792;2022-11-03T01:33:44;12.50;;;3.17;;
46481;SDS011;32193;51.446;6.792;2022-11-03T01:36:10;18.08;;;3.15;;
46481;SDS011;32193;51.446;6.792;2022-11-03T01:38:37;16.30;;;2.83;;
46481;SDS011;32193;51.446;6.792;2022-11-03T01:41:04;15.77;;;3.20;;
46481;SDS011;32193;51.446;6.792;2022-11-03T01:43:31;14.07;;;3.38;;
46481;SDS011;32193;51.446;6.792;2022-11-03T01:48:45;16.55;;;3.30;;
46481;SDS011;32193;51.446;6.792;2022-11-03T01:51:24;15.30;;;3.40;;
46481;SDS011;32193;51.446;6.792;2022-11-03T01:53:51;15.73;;;3.67;;
46481;SDS011;32193;51.446;6.792;2022-11-03T01:56:19;13.30;;;3.42;;
46481;SDS011;32193;51.446;6.792;2022-11-03T01:58:46;13.25;;;3.40;;
46481;SDS011;32193;51.446;6.792;2022-11-03T02:01:13;17.83;;;3.60;;
46481;SDS011;32193;51.446;6.792;2022-11-03T02:03:40;17.33;;;2.83;;
46481;SDS011;32193;51.446;6.792;2022-11-03T02:06:11;18.25;;;4.03;;
46481;SDS011;32193;51.446;6.792;2022-11-03T02:08:53;11.45;;;3.10;;
46481;SDS011;32193;51.446;6.792;2022-11-03T02:11:21;13.20;;;3.38;;
46481;SDS011;32193;51.446;6.792;2022-11-03T02:14:09;17.23;;;4.03;;
46481;SDS011;32193;51.446;6.792;2022-11-03T02:16:38;12.25;;;3.70;;
46481;SDS011;32193;51.446;6.792;2022-11-03T02:19:09;10.45;;;3.15;;
46481;SDS011;32193;51.446;6.792;2022-11-03T02:24:36;22.17;;;4.32;;
46481;SDS011;32193;51.446;6.792;2022-11-03T02:27:18;13.75;;;3.22;;
46481;SDS011;32193;51.446;6.792;2022-11-03T02:29:44;17.02;;;3.40;;
46481;SDS011;32193;51.446;6.792;2022-11-03T02:32:15;12.88;;;4.00;;
46481;SDS011;32193;51.446;6.792;2022-11-03T02:35:05;14.25;;;3.53;;
46481;SDS011;32193;51.446;6.792;2022-11-03T02:37:40;14.32;;;3.05;;
46481;SDS011;32193;51.446;6.792;2022-11-03T02:40:13;19.50;;;4.30;;
46481;SDS011;32193;51.446;6.792;2022-11-03T02:42:44;14.25;;;3.35;;
46481;SDS011;32193;51.446;6.792;2022-11-03T02:45:14;14.77;;;3.40;;
46481;SDS011;32193;51.446;6.792;2022-11-03T02:47:43;16.15;;;3.70;;
46481;SDS011;32193;51.446;6.792;2022-11-03T02:50:10;13.82;;;4.00;;
46481;SDS011;32193;51.446;6.792;2022-11-03T02:52:38;14.65;;;3.22;;
46481;SDS011;32193;51.446;6.792;2022-11-03T02:55:08;17.27;;;3.08;;
46481;SDS011;32193;51.446;6.792;2022-11-03T03:00:42;15.98;;;2.97;;
46481;SDS011;32193;51.446;6.792;2022-11-03T03:03:23;14.32;;;3.38;;
46481;SDS011;32193;51.446;6.792;2022-11-03T03:06:06;16.45;;;3.35;;
46481;SDS011;32193;51.446;6.792;2022-11-03T03:08:34;12.40;;;2.88;;
46481;SDS011;32193;51.446;6.792;2022-11-03T03:11:05;12.30;;;3.40;;
46481;SDS011;32193;51.446;6.792;2022-11-03T03:13:35;14.63;;;3.13;;
46481;SDS011;32193;51.446;6.792;2022-11-03T03:19:06;19.55;;;4.07;;
46481;SDS011;32193;51.446;6.792;2022-11-03T03:21:41;12.18;;;3.00;;
46481;SDS011;32193;51.446;6.792;2022-11-03T03:27:09;14.95;;;3.80;;
46481;SDS011;32193;51.446;6.792;2022-11-03T03:29:43;12.68;;;3.03;;
46481;SDS011;32193;51.446;6.792;2022-11-03T03:32:13;12.65;;;2.75;;
46481;SDS011;32193;51.446;6.792;2022-11-03T03:34:42;13.02;;;2.92;;
46481;SDS011;32193;51.446;6.792;2022-11-03T03:37:11;15.27;;;3.85;;
46481;SDS011;32193;51.446;6.792;2022-11-03T03:39:40;15.43;;;3.38;;
46481;SDS011;32193;51.446;6.792;2022-11-03T03:42:09;18.75;;;4.05;;
46481;SDS011;32193;51.446;6.792;2022-11-03T03:44:38;9.00;;;2.42;;
46481;SDS011;32193;51.446;6.792;2022-11-03T03:47:08;11.27;;;2.97;;
46481;SDS011;32193;51.446;6.792;2022-11-03T03:49:41;17.13;;;3.25;;
46481;SDS011;32193;51.446;6.792;2022-11-03T03:52:07;17.88;;;4.00;;
46481;SDS011;32193;51.446;6.792;2022-11-03T03:54:33;13.43;;;3.08;;
46481;SDS011;32193;51.446;6.792;2022-11-03T03:57:00;12.95;;;3.33;;
46481;SDS011;32193;51.446;6.792;2022-11-03T03:59:27;10.23;;;2.92;;
46481;SDS011;32193;51.446;6.792;2022-11-03T04:01:53;12.88;;;3.20;;
46481;SDS011;32193;51.446;6.792;2022-11-03T04:04:19;19.13;;;3.97;;
46481;SDS011;32193;51.446;6.792;2022-11-03T04:06:45;13.20;;;3.03;;
46481;SDS011;32193;51.446;6.792;2022-11-03T04:09:10;15.20;;;3.30;;
46481;SDS011;32193;51.446;6.792;2022-11-03T04:11:36;19.70;;;4.03;;
46481;SDS011;32193;51.446;6.792;2022-11-03T04:14:20;15.85;;;3.35;;
46481;SDS011;32193;51.446;6.792;2022-11-03T04:17:09;13.00;;;3.03;;
46481;SDS011;32193;51.446;6.792;2022-11-03T04:20:01;14.85;;;3.30;;
46481;SDS011;32193;51.446;6.792;2022-11-03T04:25:11;16.00;;;3.63;;
46481;SDS011;32193;51.446;6.792;2022-11-03T04:27:37;13.60;;;3.05;;
46481;SDS011;32193;51.446;6.792;2022-11-03T04:32:34;20.42;;;3.70;;
46481;SDS011;32193;51.446;6.792;2022-11-03T04:35:00;13.20;;;3.30;;
46481;SDS011;32193;51.446;6.792;2022-11-03T04:37:26;15.93;;;4.00;;
46481;SDS011;32193;51.446;6.792;2022-11-03T04:39:54;13.98;;;3.30;;
46481;SDS011;32193;51.446;6.792;2022-11-03T04:42:23;12.95;;;4.20;;
46481;SDS011;32193;51.446;6.792;2022-11-03T04:44:50;16.85;;;3.35;;
46481;SDS011;32193;51.446;6.792;2022-11-03T04:47:16;16.83;;;4.35;;
46481;SDS011;32193;51.446;6.792;2022-11-03T04:49:46;21.23;;;3.88;;
46481;SDS011;32193;51.446;6.792;2022-11-03T04:52:15;15.45;;;3.97;;
46481;SDS011;32193;51.446;6.792;2022-11-03T04:54:44;15.48;;;3.20;;
46481;SDS011;32193;51.446;6.792;2022-11-03T04:57:12;11.88;;;3.33;;
46481;SDS011;32193;51.446;6.792;2022-11-03T04:59:40;16.42;;;4.05;;
46481;SDS011;32193;51.446;6.792;2022-11-03T05:02:13;15.70;;;3.67;;
46481;SDS011;32193;51.446;6.792;2022-11-03T05:04:41;12.88;;;3.67;;
46481;SDS011;32193;51.446;6.792;2022-11-03T05:07:50;13.73;;;2.75;;
46481;SDS011;32193;51.446;6.792;2022-11-03T05:09:59;14.68;;;3.67;;
46481;SDS011;32193;51.446;6.792;2022-11-03T05:12:25;16.75;;;3.95;;
46481;SDS011;32193;51.446;6.792;2022-11-03T05:14:53;14.90;;;3.53;;
46481;SDS011;32193;51.446;6.792;2022-11-03T05:17:23;14.93;;;3.30;;
46481;SDS011;32193;51.446;6.792;2022-11-03T05:19:50;17.65;;;3.83;;
46481;SDS011;32193;51.446;6.792;2022-11-03T05:22:33;15.55;;;3.25;;
46481;SDS011;32193;51.446;6.792;2022-11-03T05:25:03;16.77;;;3.75;;
46481;SDS011;32193;51.446;6.792;2022-11-03T05:27:51;12.63;;;3.22;;
46481;SDS011;32193;51.446;6.792;2022-11-03T05:30:17;15.77;;;3.42;;
46481;SDS011;32193;51.446;6.792;2022-11-03T05:32:43;16.58;;;3.40;;
46481;SDS011;32193;51.446;6.792;2022-11-03T05:35:19;15.27;;;3.42;;
46481;SDS011;32193;51.446;6.792;2022-11-03T05:37:47;11.85;;;3.80;;
46481;SDS011;32193;51.446;6.792;2022-11-03T05:42:49;19.75;;;3.28;;
46481;SDS011;32193;51.446;6.792;2022-11-03T05:45:32;10.38;;;2.60;;
46481;SDS011;32193;51.446;6.792;2022-11-03T05:47:59;13.35;;;3.35;;
46481;SDS011;32193;51.446;6.792;2022-11-03T05:50:27;15.35;;;3.97;;
46481;SDS011;32193;51.446;6.792;2022-11-03T05:52:59;16.33;;;3.38;;
46481;SDS011;32193;51.446;6.792;2022-11-03T05:55:32;17.98;;;4.05;;
46481;SDS011;32193;51.446;6.792;2022-11-03T05:58:02;16.58;;;4.90;;
46481;SDS011;32193;51.446;6.792;2022-11-03T06:00:36;14.20;;;3.03;;
46481;SDS011;32193;51.446;6.792;2022-11-03T06:03:06;14.07;;;3.17;;
46481;SDS011;32193;51.446;6.792;2022-11-03T06:05:33;15.63;;;3.10;;
46481;SDS011;32193;51.446;6.792;2022-11-03T06:08:00;14.88;;;3.45;;
46481;SDS011;32193;51.446;6.792;2022-11-03T06:10:38;12.68;;;2.55;;
46481;SDS011;32193;51.446;6.792;2022-11-03T06:13:15;14.43;;;3.20;;
46481;SDS011;32193;51.446;6.792;2022-11-03T06:15:43;12.35;;;3.13;;
46481;SDS011;32193;51.446;6.792;2022-11-03T06:18:24;13.75;;;3.22;;
46481;SDS011;32193;51.446;6.792;2022-11-03T06:20:55;15.48;;;3.58;;
46481;SDS011;32193;51.446;6.792;2022-11-03T06:23:23;11.40;;;2.83;;
46481;SDS011;32193;51.446;6.792;2022-11-03T06:25:50;13.07;;;3.40;;
46481;SDS011;32193;51.446;6.792;2022-11-03T06:28:31;15.30;;;4.03;;
46481;SDS011;32193;51.446;6.792;2022-11-03T06:31:04;13.57;;;3.92;;
46481;SDS011;32193;51.446;6.792;2022-11-03T06:33:38;16.75;;;3.85;;
46481;SDS011;32193;51.446;6.792;2022-11-03T06:39:03;15.82;;;3.33;;
46481;SDS011;32193;51.446;6.792;2022-11-03T06:41:47;18.83;;;3.53;;
46481;SDS011;32193;51.446;6.792;2022-11-03T06:46:55;15.48;;;3.10;;
46481;SDS011;32193;51.446;6.792;2022-11-03T06:49:29;15.52;;;3.78;;
46481;SDS011;32193;51.446;6.792;2022-11-03T06:52:19;11.30;;;4.00;;
46481;SDS011;32193;51.446;6.792;2022-11-03T06:54:58;16.92;;;3.65;;
46481;SDS011;32193;51.446;6.792;2022-11-03T06:57:32;15.57;;;3.35;;
46481;SDS011;32193;51.446;6.792;2022-11-03T07:00:05;12.48;;;3.05;;
46481;SDS011;32193;51.446;6.792;2022-11-03T07:05:44;12.80;;;2.83;;
46481;SDS011;32193;51.446;6.792;2022-11-03T07:08:22;14.68;;;3.22;;
46481;SDS011;32193;51.446;6.792;2022-11-03T07:11:03;12.75;;;2.75;;
46481;SDS011;32193;51.446;6.792;2022-11-03T07:13:38;14.82;;;2.78;;
46481;SDS011;32193;51.446;6.792;2022-11-03T07:16:10;18.40;;;3.55;;
46481;SDS011;32193;51.446;6.792;2022-11-03T07:18:40;12.00;;;3.22;;
46481;SDS011;32193;51.446;6.792;2022-11-03T07:24:16;10.20;;;2.42;;
46481;SDS011;32193;51.446;6.792;2022-11-03T07:26:50;13.95;;;3.60;;
46481;SDS011;32193;51.446;6.792;2022-11-03T07:29:35;13.75;;;2.90;;
46481;SDS011;32193;51.446;6.792;2022-11-03T07:32:00;18.40;;;4.20;;
46481;SDS011;32193;51.446;6.792;2022-11-03T07:34:30;9.07;;;2.58;;
46481;SDS011;32193;51.446;6.792;2022-11-03T07:36:57;11.48;;;3.17;;
46481;SDS011;32193;51.446;6.792;2022-11-03T07:39:31;13.13;;;2.92;;
46481;SDS011;32193;51.446;6.792;2022-11-03T07:42:01;13.77;;;3.10;;
46481;SDS011;32193;51.446;6.792;2022-11-03T07:44:36;11.45;;;3.25;;
46481;SDS011;32193;51.446;6.792;2022-11-03T07:47:02;17.95;;;3.50;;
46481;SDS011;32193;51.446;6.792;2022-11-03T07:49:35;14.43;;;3.15;;
46481;SDS011;32193;51.446;6.792;2022-11-03T07:52:00;10.68;;;3.15;;
46481;SDS011;32193;51.446;6.792;2022-11-03T07:54:30;13.75;;;4.25;;
46481;SDS011;32193;51.446;6.792;2022-11-03T07:59:48;11.10;;;2.65;;
46481;SDS011;32193;51.446;6.792;2022-11-03T08:04:55;12.60;;;2.90;;
46481;SDS011;32193;51.446;6.792;2022-11-03T08:07:22;14.68;;;3.15;;
46481;SDS011;32193;51.446;6.792;2022-11-03T08:09:48;14.38;;;2.70;;
46481;SDS011;32193;51.446;6.792;2022-11-03T08:12:14;13.60;;;3.08;;
46481;SDS011;32193;51.446;6.792;2022-11-03T08:14:39;19.38;;;4.85;;
46481;SDS011;32193;51.446;6.792;2022-11-03T08:17:05;12.10;;;3.38;;
46481;SDS011;32193;51.446;6.792;2022-11-03T08:19:31;12.82;;;2.72;;
46481;SDS011;32193;51.446;6.792;2022-11-03T08:21:57;15.15;;;3.55;;
46481;SDS011;32193;51.446;6.792;2022-11-03T08:24:23;14.77;;;3.63;;
46481;SDS011;32193;51.446;6.792;2022-11-03T08:26:48;10.48;;;2.85;;
46481;SDS011;32193;51.446;6.792;2022-11-03T08:29:14;11.18;;;3.05;;
46481;SDS011;32193;51.446;6.792;2022-11-03T08:31:43;12.32;;;3.95;;
46481;SDS011;32193;51.446;6.792;2022-11-03T08:34:09;12.45;;;3.00;;
46481;SDS011;32193;51.446;6.792;2022-11-03T08:36:35;13.48;;;2.85;;
46481;SDS011;32193;51.446;6.792;2022-11-03T08:39:01;9.77;;;2.65;;
46481;SDS011;32193;51.446;6.792;2022-11-03T08:41:27;12.07;;;3.30;;
46481;SDS011;32193;51.446;6.792;2022-11-03T08:43:53;11.07;;;3.25;;
46481;SDS011;32193;51.446;6.792;2022-11-03T08:46:19;13.77;;;3.00;;
46481;SDS011;32193;51.446;6.792;2022-11-03T08:48:45;12.82;;;3.15;;
46481;SDS011;32193;51.446;6.792;2022-11-03T08:51:11;14.18;;;3.03;;
46481;SDS011;32193;51.446;6.792;2022-11-03T08:53:38;15.50;;;3.22;;
46481;SDS011;32193;51.446;6.792;2022-11-03T08:56:03;12.00;;;3.30;;
46481;SDS011;32193;51.446;6.792;2022-11-03T08:58:30;13.13;;;3.35;;
46481;SDS011;32193;51.446;6.792;2022-11-03T09:00:56;14.88;;;3.83;;
46481;SDS011;32193;51.446;6.792;2022-11-03T09:03:21;14.85;;;3.35;;
46481;SDS011;32193;51.446;6.792;2022-11-03T09:05:47;19.70;;;3.45;;
46481;SDS011;32193;51.446;6.792;2022-11-03T09:08:13;11.88;;;4.18;;
46481;SDS011;32193;51.446;6.792;2022-11-03T09:10:39;13.32;;;3.33;;
46481;SDS011;32193;51.446;6.792;2022-11-03T09:13:04;16.45;;;3.55;;
46481;SDS011;32193;51.446;6.792;2022-11-03T09:15:30;12.40;;;3.08;;
46481;SDS011;32193;51.446;6.792;2022-11-03T09:17:56;12.40;;;3.00;;
46481;SDS011;32193;51.446;6.792;2022-11-03T09:20:21;14.07;;;3.20;;
46481;SDS011;32193;51.446;6.792;2022-11-03T09:22:47;16.08;;;4.22;;
46481;SDS011;32193;51.446;6.792;2022-11-03T09:25:13;16.95;;;3.13;;
46481;SDS011;32193;51.446;6.792;2022-11-03T09:27:38;11.75;;;2.97;;
46481;SDS011;32193;51.446;6.792;2022-11-03T09:30:04;14.50;;;3.08;;
46481;SDS011;32193;51.446;6.792;2022-11-03T09:32:31;12.52;;;3.58;;
46481;SDS011;32193;51.446;6.792;2022-11-03T09:34:58;14.13;;;3.25;;
46481;SDS011;32193;51.446;6.792;2022-11-03T09:37:23;9.25;;;2.72;;
46481;SDS011;32193;51.446;6.792;2022-11-03T09:39:49;12.43;;;2.83;;
46481;SDS011;32193;51.446;6.792;2022-11-03T09:42:15;14.05;;;3.25;;
46481;SDS011;32193;51.446;6.792;2022-11-03T09:44:42;14.95;;;3.63;;
46481;SDS011;32193;51.446;6.792;2022-11-03T09:47:08;14.90;;;3.05;;
46481;SDS011;32193;51.446;6.792;2022-11-03T09:49:37;13.57;;;3.13;;
46481;SDS011;32193;51.446;6.792;2022-11-03T09:52:03;12.95;;;3.33;;
46481;SDS011;32193;51.446;6.792;2022-11-03T09:54:30;13.90;;;3.65;;
46481;SDS011;32193;51.446;6.792;2022-11-03T09:56:57;15.52;;;3.35;;
46481;SDS011;32193;51.446;6.792;2022-11-03T09:59:29;13.60;;;4.15;;
46481;SDS011;32193;51.446;6.792;2022-11-03T10:01:54;12.40;;;2.88;;
46481;SDS011;32193;51.446;6.792;2022-11-03T10:04:24;11.10;;;3.00;;
46481;SDS011;32193;51.446;6.792;2022-11-03T10:06:53;12.30;;;3.40;;
46481;SDS011;32193;51.446;6.792;2022-11-03T10:09:19;12.80;;;3.42;;
46481;SDS011;32193;51.446;6.792;2022-11-03T10:11:47;11.73;;;2.67;;
46481;SDS011;32193;51.446;6.792;2022-11-03T10:14:13;12.48;;;3.00;;
46481;SDS011;32193;51.446;6.792;2022-11-03T10:16:41;11.48;;;3.03;;
46481;SDS011;32193;51.446;6.792;2022-11-03T10:19:08;12.43;;;3.58;;
46481;SDS011;32193;51.446;6.792;2022-11-03T10:21:35;11.30;;;3.55;;
46481;SDS011;32193;51.446;6.792;2022-11-03T10:24:02;14.68;;;2.63;;
46481;SDS011;32193;51.446;6.792;2022-11-03T10:26:28;14.95;;;3.50;;
46481;SDS011;32193;51.446;6.792;2022-11-03T10:29:03;11.82;;;2.58;;
46481;SDS011;32193;51.446;6.792;2022-11-03T10:31:31;10.77;;;3.08;;
46481;SDS011;32193;51.446;6.792;2022-11-03T10:34:05;14.40;;;4.97;;
46481;SDS011;32193;51.446;6.792;2022-11-03T10:39:38;13.65;;;3.65;;
46481;SDS011;32193;51.446;6.792;2022-11-03T10:42:04;13.48;;;2.55;;
46481;SDS011;32193;51.446;6.792;2022-11-03T10:44:30;14.68;;;2.92;;
46481;SDS011;32193;51.446;6.792;2022-11-03T10:49:32;8.85;;;2.45;;
46481;SDS011;32193;51.446;6.792;2022-11-03T10:54:44;9.95;;;2.53;;
46481;SDS011;32193;51.446;6.792;2022-11-03T10:57:10;11.63;;;2.70;;
46481;SDS011;32193;51.446;6.792;2022-11-03T10:59:36;9.88;;;2.58;;
46481;SDS011;32193;51.446;6.792;2022-11-03T11:02:09;12.93;;;2.88;;
46481;SDS011;32193;51.446;6.792;2022-11-03T11:04:50;12.43;;;2.28;;
46481;SDS011;32193;51.446;6.792;2022-11-03T11:07:24;11.05;;;2.47;;
46481;SDS011;32193;51.446;6.792;2022-11-03T11:09:55;17.20;;;2.85;;
46481;SDS011;32193;51.446;6.792;2022-11-03T11:12:35;11.43;;;2.22;;
46481;SDS011;32193;51.446;6.792;2022-11-03T11:15:01;10.93;;;2.95;;
46481;SDS011;32193;51.446;6.792;2022-11-03T11:22:47;11.18;;;2.55;;
46481;SDS011;32193;51.446;6.792;2022-11-03T11:25:13;14.80;;;2.22;;
46481;SDS011;32193;51.446;6.792;2022-11-03T11:32:49;11.73;;;2.78;;
46481;SDS011;32193;51.446;6.792;2022-11-03T11:37:52;9.35;;;2.00;;
46481;SDS011;32193;51.446;6.792;2022-11-03T11:48:31;9.32;;;1.83;;
46481;SDS011;32193;51.446;6.792;2022-11-03T11:50:58;7.43;;;1.55;;
46481;SDS011;32193;51.446;6.792;2022-11-03T11:53:24;10.40;;;1.92;;
46481;SDS011;32193;51.446;6.792;2022-11-03T11:58:18;9.13;;;1.90;;
46481;SDS011;32193;51.446;6.792;2022-11-03T12:03:16;5.80;;;1.40;;
46481;SDS011;32193;51.446;6.792;2022-11-03T12:05:50;7.80;;;1.63;;
46481;SDS011;32193;51.446;6.792;2022-11-03T12:08:16;12.70;;;2.00;;
46481;SDS011;32193;51.446;6.792;2022-11-03T12:10:56;9.02;;;2.17;;
46481;SDS011;32193;51.446;6.792;2022-11-03T12:21:58;5.90;;;1.65;;
46481;SDS011;32193;51.446;6.792;2022-11-03T12:24:25;15.23;;;2.70;;
46481;SDS011;32193;51.446;6.792;2022-11-03T12:26:51;7.60;;;1.90;;
46481;SDS011;32193;51.446;6.792;2022-11-03T12:29:17;6.53;;;1.70;;
46481;SDS011;32193;51.446;6.792;2022-11-03T12:31:43;8.43;;;1.60;;
46481;SDS011;32193;51.446;6.792;2022-11-03T12:34:09;7.65;;;1.67;;
46481;SDS011;32193;51.446;6.792;2022-11-03T12:36:34;7.85;;;1.77;;
46481;SDS011;32193;51.446;6.792;2022-11-03T12:39:00;7.93;;;1.98;;
46481;SDS011;32193;51.446;6.792;2022-11-03T12:41:26;9.25;;;1.73;;
46481;SDS011;32193;51.446;6.792;2022-11-03T12:43:52;8.90;;;1.67;;
46481;SDS011;32193;51.446;6.792;2022-11-03T12:46:19;7.00;;;1.67;;
46481;SDS011;32193;51.446;6.792;2022-11-03T12:48:46;7.63;;;1.92;;
46481;SDS011;32193;51.446;6.792;2022-11-03T12:51:13;8.30;;;2.00;;
46481;SDS011;32193;51.446;6.792;2022-11-03T12:53:40;9.73;;;2.00;;
46481;SDS011;32193;51.446;6.792;2022-11-03T12:56:06;8.45;;;2.15;;
46481;SDS011;32193;51.446;6.792;2022-11-03T12:58:33;8.32;;;1.65;;
46481;SDS011;32193;51.446;6.792;2022-11-03T13:00:59;7.70;;;1.58;;
46481;SDS011;32193;51.446;6.792;2022-11-03T13:03:25;7.32;;;1.95;;
46481;SDS011;32193;51.446;6.792;2022-11-03T13:05:50;8.63;;;2.15;;
46481;SDS011;32193;51.446;6.792;2022-11-03T13:08:16;11.52;;;1.95;;
46481;SDS011;32193;51.446;6.792;2022-11-03T13:10:42;8.70;;;1.75;;
46481;SDS011;32193;51.446;6.792;2022-11-03T13:13:08;11.75;;;2.25;;
46481;SDS011;32193;51.446;6.792;2022-11-03T13:15:33;6.47;;;1.40;;
46481;SDS011;32193;51.446;6.792;2022-11-03T13:17:59;7.32;;;1.52;;
46481;SDS011;32193;51.446;6.792;2022-11-03T13:20:25;8.25;;;1.65;;
46481;SDS011;32193;51.446;6.792;2022-11-03T13:22:51;10.93;;;2.67;;
46481;SDS011;32193;51.446;6.792;2022-11-03T13:25:17;8.30;;;1.90;;
46481;SDS011;32193;51.446;6.792;2022-11-03T13:27:42;8.10;;;1.75;;
46481;SDS011;32193;51.446;6.792;2022-11-03T13:30:08;8.77;;;2.20;;
46481;SDS011;32193;51.446;6.792;2022-11-03T13:32:36;9.60;;;2.20;;
46481;SDS011;32193;51.446;6.792;2022-11-03T13:35:02;8.80;;;1.65;;
46481;SDS011;32193;51.446;6.792;2022-11-03T13:37:28;7.55;;;1.90;;
46481;SDS011;32193;51.446;6.792;2022-11-03T13:39:53;8.57;;;2.25;;
46481;SDS011;32193;51.446;6.792;2022-11-03T13:42:19;6.95;;;2.08;;
46481;SDS011;32193;51.446;6.792;2022-11-03T13:44:45;8.60;;;1.83;;
46481;SDS011;32193;51.446;6.792;2022-11-03T13:47:11;11.48;;;2.33;;
46481;SDS011;32193;51.446;6.792;2022-11-03T13:49:37;6.25;;;1.70;;
46481;SDS011;32193;51.446;6.792;2022-11-03T13:52:03;8.60;;;1.98;;
46481;SDS011;32193;51.446;6.792;2022-11-03T13:54:29;8.23;;;1.70;;
46481;SDS011;32193;51.446;6.792;2022-11-03T13:56:55;9.02;;;1.77;;
46481;SDS011;32193;51.446;6.792;2022-11-03T13:59:21;10.73;;;2.75;;
46481;SDS011;32193;51.446;6.792;2022-11-03T14:01:47;8.43;;;2.50;;
46481;SDS011;32193;51.446;6.792;2022-11-03T14:04:14;8.77;;;2.05;;
46481;SDS011;32193;51.446;6.792;2022-11-03T14:06:39;5.70;;;1.80;;
46481;SDS011;32193;51.446;6.792;2022-11-03T14:09:05;9.82;;;1.83;;
46481;SDS011;32193;51.446;6.792;2022-11-03T14:11:31;8.95;;;2.17;;
46481;SDS011;32193;51.446;6.792;2022-11-03T14:16:41;10.60;;;2.30;;
46481;SDS011;32193;51.446;6.792;2022-11-03T14:19:07;7.53;;;2.00;;
46481;SDS011;32193;51.446;6.792;2022-11-03T14:21:32;6.68;;;2.47;;
46481;SDS011;32193;51.446;6.792;2022-11-03T14:24:01;7.45;;;2.38;;
46481;SDS011;32193;51.446;6.792;2022-11-03T14:26:28;11.30;;;2.10;;
46481;SDS011;32193;51.446;6.792;2022-11-03T14:28:54;5.40;;;1.60;;
46481;SDS011;32193;51.446;6.792;2022-11-03T14:31:20;8.70;;;2.47;;
46481;SDS011;32193;51.446;6.792;2022-11-03T14:33:46;6.82;;;1.95;;
46481;SDS011;32193;51.446;6.792;2022-11-03T14:36:12;8.23;;;2.10;;
46481;SDS011;32193;51.446;6.792;2022-11-03T14:38:37;8.50;;;2.33;;
46481;SDS011;32193;51.446;6.792;2022-11-03T14:41:03;8.65;;;1.98;;
46481;SDS011;32193;51.446;6.792;2022-11-03T14:46:12;9.18;;;2.30;;
46481;SDS011;32193;51.446;6.792;2022-11-03T14:48:38;10.15;;;2.60;;
46481;SDS011;32193;51.446;6.792;2022-11-03T14:51:04;8.82;;;1.90;;
46481;SDS011;32193;51.446;6.792;2022-11-03T14:53:30;9.57;;;2.20;;
46481;SDS011;32193;51.446;6.792;2022-11-03T14:55:57;9.27;;;2.20;;
46481;SDS011;32193;51.446;6.792;2022-11-03T14:58:22;7.60;;;2.33;;
46481;SDS011;32193;51.446;6.792;2022-11-03T15:00:48;8.25;;;2.42;;
46481;SDS011;32193;51.446;6.792;2022-11-03T15:03:14;6.82;;;2.30;;
46481;SDS011;32193;51.446;6.792;2022-11-03T15:05:40;8.95;;;2.17;;
46481;SDS011;32193;51.446;6.792;2022-11-03T15:08:12;10.25;;;2.95;;
46481;SDS011;32193;51.446;6.792;2022-11-03T15:10:40;9.00;;;2.17;;
46481;SDS011;32193;51.446;6.792;2022-11-03T15:13:06;9.70;;;2.38;;
46481;SDS011;32193;51.446;6.792;2022-11-03T15:15:32;9.63;;;3.25;;
46481;SDS011;32193;51.446;6.792;2022-11-03T15:18:00;7.18;;;2.65;;
46481;SDS011;32193;51.446;6.792;2022-11-03T15:20:26;7.07;;;2.50;;
46481;SDS011;32193;51.446;6.792;2022-11-03T15:22:52;12.77;;;2.78;;
46481;SDS011;32193;51.446;6.792;2022-11-03T15:25:18;11.60;;;2.75;;
46481;SDS011;32193;51.446;6.792;2022-11-03T15:27:43;9.20;;;2.45;;
46481;SDS011;32193;51.446;6.792;2022-11-03T15:30:09;11.18;;;3.13;;
46481;SDS011;32193;51.446;6.792;2022-11-03T15:32:35;6.72;;;2.28;;
46481;SDS011;32193;51.446;6.792;2022-11-03T15:35:01;13.18;;;2.92;;
46481;SDS011;32193;51.446;6.792;2022-11-03T15:37:27;14.38;;;2.90;;
46481;SDS011;32193;51.446;6.792;2022-11-03T15:39:53;11.43;;;3.75;;
46481;SDS011;32193;51.446;6.792;2022-11-03T15:42:18;11.10;;;3.75;;
46481;SDS011;32193;51.446;6.792;2022-11-03T15:44:44;7.47;;;3.33;;
46481;SDS011;32193;51.446;6.792;2022-11-03T15:47:10;8.95;;;3.28;;
46481;SDS011;32193;51.446;6.792;2022-11-03T15:49:36;9.15;;;2.88;;
46481;SDS011;32193;51.446;6.792;2022-11-03T15:52:02;11.38;;;3.50;;
46481;SDS011;32193;51.446;6.792;2022-11-03T15:54:28;9.30;;;3.00;;
46481;SDS011;32193;51.446;6.792;2022-11-03T15:56:54;9.52;;;3.05;;
46481;SDS011;32193;51.446;6.792;2022-11-03T15:59:19;15.23;;;3.22;;
46481;SDS011;32193;51.446;6.792;2022-11-03T16:01:45;11.95;;;3.53;;
46481;SDS011;32193;51.446;6.792;2022-11-03T16:04:11;10.13;;;2.85;;
46481;SDS011;32193;51.446;6.792;2022-11-03T16:06:36;8.85;;;3.20;;
46481;SDS011;32193;51.446;6.792;2022-11-03T16:09:02;9.65;;;3.33;;
46481;SDS011;32193;51.446;6.792;2022-11-03T16:11:29;14.60;;;3.00;;
46481;SDS011;32193;51.446;6.792;2022-11-03T16:13:55;11.52;;;3.53;;
46481;SDS011;32193;51.446;6.792;2022-11-03T16:16:20;11.25;;;2.90;;
46481;SDS011;32193;51.446;6.792;2022-11-03T16:18:46;11.00;;;2.92;;